sensor_id;sensor_type;location;lat;lon;timestamp;P1;durP1;ratioP1;P2;durP2;ratioP2
17714;SDS011;8977;50.902;4.314;2023-02-01T00:00:26;11.80;;;6.43;;
17714;SDS011;8977;50.902;4.314;2023-02-01T00:02:54;14.67;;;7.03;;
17714;SDS011;8977;50.902;4.314;2023-02-01T00:05:21;14.37;;;7.37;;
17714;SDS011;8977;50.902;4.314;2023-02-01T00:07:48;15.33;;;6.73;;
17714;SDS011;8977;50.902;4.314;2023-02-01T00:10:15;20.30;;;7.90;;
17714;SDS011;8977;50.902;4.314;2023-02-01T00:12:42;17.53;;;8.00;;
17714;SDS011;8977;50.902;4.314;2023-02-01T00:15:09;17.27;;;7.60;;
17714;SDS011;8977;50.902;4.314;2023-02-01T00:17:36;11.50;;;6.43;;
17714;SDS011;8977;50.902;4.314;2023-02-01T00:20:05;18.20;;;7.33;;
17714;SDS011;8977;50.902;4.314;2023-02-01T00:22:33;14.33;;;6.60;;
17714;SDS011;8977;50.902;4.314;2023-02-01T00:25:00;13.60;;;6.90;;
17714;SDS011;8977;50.902;4.314;2023-02-01T00:27:27;15.73;;;6.63;;
17714;SDS011;8977;50.902;4.314;2023-02-01T00:29:54;14.47;;;6.60;;
17714;SDS011;8977;50.902;4.314;2023-02-01T00:32:21;14.53;;;6.70;;
17714;SDS011;8977;50.902;4.314;2023-02-01T00:34:48;16.97;;;5.93;;
17714;SDS011;8977;50.902;4.314;2023-02-01T00:37:16;10.67;;;6.00;;
17714;SDS011;8977;50.902;4.314;2023-02-01T00:39:43;15.03;;;6.03;;
17714;SDS011;8977;50.902;4.314;2023-02-01T00:42:10;12.93;;;5.17;;
17714;SDS011;8977;50.902;4.314;2023-02-01T00:44:37;18.73;;;6.20;;
17714;SDS011;8977;50.902;4.314;2023-02-01T00:47:03;16.27;;;5.37;;
17714;SDS011;8977;50.902;4.314;2023-02-01T00:49:30;14.33;;;5.00;;
17714;SDS011;8977;50.902;4.314;2023-02-01T00:51:57;14.07;;;4.80;;
17714;SDS011;8977;50.902;4.314;2023-02-01T00:54:25;13.70;;;4.70;;
17714;SDS011;8977;50.902;4.314;2023-02-01T00:56:52;13.10;;;4.60;;
17714;SDS011;8977;50.902;4.314;2023-02-01T00:59:19;10.57;;;4.00;;
17714;SDS011;8977;50.902;4.314;2023-02-01T01:01:46;19.60;;;5.27;;
17714;SDS011;8977;50.902;4.314;2023-02-01T01:04:13;14.23;;;4.80;;
17714;SDS011;8977;50.902;4.314;2023-02-01T01:06:40;9.90;;;3.90;;
17714;SDS011;8977;50.902;4.314;2023-02-01T01:09:07;18.40;;;5.43;;
17714;SDS011;8977;50.902;4.314;2023-02-01T01:11:36;10.37;;;3.87;;
17714;SDS011;8977;50.902;4.314;2023-02-01T01:14:04;17.93;;;4.20;;
17714;SDS011;8977;50.902;4.314;2023-02-01T01:16:32;13.47;;;3.90;;
17714;SDS011;8977;50.902;4.314;2023-02-01T01:18:59;11.73;;;4.20;;
17714;SDS011;8977;50.902;4.314;2023-02-01T01:21:27;14.90;;;4.50;;
17714;SDS011;8977;50.902;4.314;2023-02-01T01:23:54;12.97;;;5.00;;
17714;SDS011;8977;50.902;4.314;2023-02-01T01:26:22;12.10;;;4.47;;
17714;SDS011;8977;50.902;4.314;2023-02-01T01:28:52;14.40;;;4.93;;
17714;SDS011;8977;50.902;4.314;2023-02-01T01:31:20;16.10;;;5.23;;
17714;SDS011;8977;50.902;4.314;2023-02-01T01:33:47;12.10;;;5.10;;
17714;SDS011;8977;50.902;4.314;2023-02-01T01:36:15;14.93;;;5.20;;
17714;SDS011;8977;50.902;4.314;2023-02-01T01:38:42;11.70;;;4.60;;
17714;SDS011;8977;50.902;4.314;2023-02-01T01:41:11;13.43;;;4.90;;
17714;SDS011;8977;50.902;4.314;2023-02-01T01:43:46;14.00;;;4.73;;
17714;SDS011;8977;50.902;4.314;2023-02-01T01:46:16;16.10;;;5.17;;
17714;SDS011;8977;50.902;4.314;2023-02-01T01:48:44;14.77;;;4.63;;
17714;SDS011;8977;50.902;4.314;2023-02-01T01:51:13;16.73;;;4.27;;
17714;SDS011;8977;50.902;4.314;2023-02-01T01:53:45;14.23;;;4.40;;
17714;SDS011;8977;50.902;4.314;2023-02-01T01:56:16;13.80;;;3.83;;
17714;SDS011;8977;50.902;4.314;2023-02-01T01:58:43;12.37;;;4.17;;
17714;SDS011;8977;50.902;4.314;2023-02-01T02:01:10;16.83;;;4.20;;
17714;SDS011;8977;50.902;4.314;2023-02-01T02:03:39;19.37;;;3.93;;
17714;SDS011;8977;50.902;4.314;2023-02-01T02:06:10;16.10;;;4.27;;
17714;SDS011;8977;50.902;4.314;2023-02-01T02:08:41;17.83;;;4.13;;
17714;SDS011;8977;50.902;4.314;2023-02-01T02:11:08;9.97;;;3.63;;
17714;SDS011;8977;50.902;4.314;2023-02-01T02:13:38;13.67;;;3.60;;
17714;SDS011;8977;50.902;4.314;2023-02-01T02:16:12;16.10;;;4.43;;
17714;SDS011;8977;50.902;4.314;2023-02-01T02:19:09;8.67;;;3.30;;
17714;SDS011;8977;50.902;4.314;2023-02-01T02:22:11;13.47;;;4.13;;
17714;SDS011;8977;50.902;4.314;2023-02-01T02:25:15;13.23;;;3.77;;
17714;SDS011;8977;50.902;4.314;2023-02-01T02:27:56;13.17;;;4.40;;
17714;SDS011;8977;50.902;4.314;2023-02-01T02:30:36;14.67;;;4.47;;
17714;SDS011;8977;50.902;4.314;2023-02-01T02:36:16;13.47;;;3.97;;
17714;SDS011;8977;50.902;4.314;2023-02-01T02:38:52;16.77;;;4.37;;
17714;SDS011;8977;50.902;4.314;2023-02-01T02:41:28;15.33;;;4.33;;
17714;SDS011;8977;50.902;4.314;2023-02-01T02:44:20;12.17;;;4.13;;
17714;SDS011;8977;50.902;4.314;2023-02-01T02:47:11;14.67;;;4.67;;
17714;SDS011;8977;50.902;4.314;2023-02-01T02:49:54;13.87;;;3.80;;
17714;SDS011;8977;50.902;4.314;2023-02-01T02:52:45;14.87;;;4.30;;
17714;SDS011;8977;50.902;4.314;2023-02-01T02:55:34;14.80;;;4.10;;
17714;SDS011;8977;50.902;4.314;2023-02-01T02:58:05;13.30;;;3.97;;
17714;SDS011;8977;50.902;4.314;2023-02-01T03:00:52;13.30;;;3.47;;
17714;SDS011;8977;50.902;4.314;2023-02-01T03:03:37;13.50;;;3.53;;
17714;SDS011;8977;50.902;4.314;2023-02-01T03:06:23;17.23;;;4.70;;
17714;SDS011;8977;50.902;4.314;2023-02-01T03:08:51;8.97;;;3.40;;
17714;SDS011;8977;50.902;4.314;2023-02-01T03:11:22;11.80;;;3.57;;
17714;SDS011;8977;50.902;4.314;2023-02-01T03:14:11;15.23;;;4.10;;
17714;SDS011;8977;50.902;4.314;2023-02-01T03:16:41;16.97;;;3.60;;
17714;SDS011;8977;50.902;4.314;2023-02-01T03:19:14;14.90;;;4.27;;
17714;SDS011;8977;50.902;4.314;2023-02-01T03:21:47;11.77;;;3.57;;
17714;SDS011;8977;50.902;4.314;2023-02-01T03:24:18;16.63;;;3.67;;
17714;SDS011;8977;50.902;4.314;2023-02-01T03:26:58;16.63;;;3.63;;
17714;SDS011;8977;50.902;4.314;2023-02-01T03:29:33;15.20;;;3.57;;
17714;SDS011;8977;50.902;4.314;2023-02-01T03:32:04;12.03;;;3.77;;
17714;SDS011;8977;50.902;4.314;2023-02-01T03:34:31;11.23;;;3.67;;
17714;SDS011;8977;50.902;4.314;2023-02-01T03:37:01;14.60;;;3.47;;
17714;SDS011;8977;50.902;4.314;2023-02-01T03:39:33;13.00;;;3.53;;
17714;SDS011;8977;50.902;4.314;2023-02-01T03:42:03;11.87;;;3.67;;
17714;SDS011;8977;50.902;4.314;2023-02-01T03:44:35;14.47;;;3.70;;
17714;SDS011;8977;50.902;4.314;2023-02-01T03:47:05;12.40;;;3.43;;
17714;SDS011;8977;50.902;4.314;2023-02-01T03:49:35;11.00;;;3.57;;
17714;SDS011;8977;50.902;4.314;2023-02-01T03:52:06;17.57;;;3.63;;
17714;SDS011;8977;50.902;4.314;2023-02-01T03:54:37;10.80;;;3.17;;
17714;SDS011;8977;50.902;4.314;2023-02-01T03:57:06;14.83;;;3.60;;
17714;SDS011;8977;50.902;4.314;2023-02-01T03:59:38;14.90;;;3.50;;
17714;SDS011;8977;50.902;4.314;2023-02-01T04:02:06;10.13;;;3.40;;
17714;SDS011;8977;50.902;4.314;2023-02-01T04:04:33;13.20;;;3.40;;
17714;SDS011;8977;50.902;4.314;2023-02-01T04:07:01;14.90;;;3.70;;
17714;SDS011;8977;50.902;4.314;2023-02-01T04:09:29;14.37;;;3.80;;
17714;SDS011;8977;50.902;4.314;2023-02-01T04:11:56;16.67;;;3.83;;
17714;SDS011;8977;50.902;4.314;2023-02-01T04:14:23;12.73;;;3.67;;
17714;SDS011;8977;50.902;4.314;2023-02-01T04:16:50;19.00;;;3.97;;
17714;SDS011;8977;50.902;4.314;2023-02-01T04:19:18;9.30;;;2.90;;
17714;SDS011;8977;50.902;4.314;2023-02-01T04:21:44;17.23;;;3.80;;
17714;SDS011;8977;50.902;4.314;2023-02-01T04:24:11;15.07;;;3.73;;
17714;SDS011;8977;50.902;4.314;2023-02-01T04:26:39;11.23;;;3.40;;
17714;SDS011;8977;50.902;4.314;2023-02-01T04:29:07;15.10;;;4.27;;
17714;SDS011;8977;50.902;4.314;2023-02-01T04:31:35;14.97;;;3.27;;
17714;SDS011;8977;50.902;4.314;2023-02-01T04:34:02;14.83;;;4.60;;
17714;SDS011;8977;50.902;4.314;2023-02-01T04:36:29;17.40;;;4.57;;
17714;SDS011;8977;50.902;4.314;2023-02-01T04:38:56;12.67;;;3.53;;
17714;SDS011;8977;50.902;4.314;2023-02-01T04:41:23;14.80;;;3.70;;
17714;SDS011;8977;50.902;4.314;2023-02-01T04:43:51;15.53;;;3.57;;
17714;SDS011;8977;50.902;4.314;2023-02-01T04:46:18;19.00;;;4.03;;
17714;SDS011;8977;50.902;4.314;2023-02-01T04:48:45;15.93;;;4.27;;
17714;SDS011;8977;50.902;4.314;2023-02-01T04:51:12;14.03;;;3.23;;
17714;SDS011;8977;50.902;4.314;2023-02-01T04:53:40;15.37;;;3.60;;
17714;SDS011;8977;50.902;4.314;2023-02-01T04:56:07;14.20;;;3.70;;
17714;SDS011;8977;50.902;4.314;2023-02-01T04:58:34;20.50;;;4.43;;
17714;SDS011;8977;50.902;4.314;2023-02-01T05:01:03;14.63;;;4.23;;
17714;SDS011;8977;50.902;4.314;2023-02-01T05:03:30;17.53;;;4.40;;
17714;SDS011;8977;50.902;4.314;2023-02-01T05:05:57;16.03;;;4.27;;
17714;SDS011;8977;50.902;4.314;2023-02-01T05:08:26;13.17;;;4.13;;
17714;SDS011;8977;50.902;4.314;2023-02-01T05:10:53;17.03;;;3.83;;
17714;SDS011;8977;50.902;4.314;2023-02-01T05:13:20;11.00;;;3.50;;
17714;SDS011;8977;50.902;4.314;2023-02-01T05:16:06;11.23;;;3.97;;
17714;SDS011;8977;50.902;4.314;2023-02-01T05:18:33;12.23;;;3.70;;
17714;SDS011;8977;50.902;4.314;2023-02-01T05:21:00;16.97;;;4.20;;
17714;SDS011;8977;50.902;4.314;2023-02-01T05:23:27;13.80;;;3.57;;
17714;SDS011;8977;50.902;4.314;2023-02-01T05:25:57;11.33;;;3.70;;
17714;SDS011;8977;50.902;4.314;2023-02-01T05:28:25;14.97;;;3.83;;
17714;SDS011;8977;50.902;4.314;2023-02-01T05:30:52;12.77;;;3.43;;
17714;SDS011;8977;50.902;4.314;2023-02-01T05:33:21;13.80;;;3.73;;
17714;SDS011;8977;50.902;4.314;2023-02-01T05:35:48;12.07;;;3.33;;
17714;SDS011;8977;50.902;4.314;2023-02-01T05:38:15;14.27;;;3.97;;
17714;SDS011;8977;50.902;4.314;2023-02-01T05:40:42;11.53;;;3.40;;
17714;SDS011;8977;50.902;4.314;2023-02-01T05:43:14;17.20;;;3.80;;
17714;SDS011;8977;50.902;4.314;2023-02-01T05:45:42;16.30;;;3.87;;
17714;SDS011;8977;50.902;4.314;2023-02-01T05:48:09;15.60;;;3.50;;
17714;SDS011;8977;50.902;4.314;2023-02-01T05:50:37;18.00;;;5.73;;
17714;SDS011;8977;50.902;4.314;2023-02-01T05:53:04;13.87;;;3.83;;
17714;SDS011;8977;50.902;4.314;2023-02-01T05:55:31;14.77;;;3.80;;
17714;SDS011;8977;50.902;4.314;2023-02-01T05:57:58;12.03;;;3.70;;
17714;SDS011;8977;50.902;4.314;2023-02-01T06:00:24;17.60;;;4.10;;
17714;SDS011;8977;50.902;4.314;2023-02-01T06:02:51;14.20;;;3.63;;
17714;SDS011;8977;50.902;4.314;2023-02-01T06:05:18;14.00;;;3.17;;
17714;SDS011;8977;50.902;4.314;2023-02-01T06:07:46;13.77;;;3.67;;
17714;SDS011;8977;50.902;4.314;2023-02-01T06:10:14;11.13;;;3.37;;
17714;SDS011;8977;50.902;4.314;2023-02-01T06:12:42;13.83;;;3.60;;
17714;SDS011;8977;50.902;4.314;2023-02-01T06:15:09;14.77;;;3.70;;
17714;SDS011;8977;50.902;4.314;2023-02-01T06:17:36;16.70;;;4.03;;
17714;SDS011;8977;50.902;4.314;2023-02-01T06:20:06;16.60;;;3.50;;
17714;SDS011;8977;50.902;4.314;2023-02-01T06:22:34;11.70;;;3.50;;
17714;SDS011;8977;50.902;4.314;2023-02-01T06:25:02;12.83;;;3.73;;
17714;SDS011;8977;50.902;4.314;2023-02-01T06:27:29;15.10;;;3.43;;
17714;SDS011;8977;50.902;4.314;2023-02-01T06:29:56;16.67;;;3.43;;
17714;SDS011;8977;50.902;4.314;2023-02-01T06:32:23;8.73;;;3.33;;
17714;SDS011;8977;50.902;4.314;2023-02-01T06:34:50;12.10;;;4.00;;
17714;SDS011;8977;50.902;4.314;2023-02-01T06:37:18;19.23;;;4.27;;
17714;SDS011;8977;50.902;4.314;2023-02-01T06:39:44;14.90;;;3.83;;
17714;SDS011;8977;50.902;4.314;2023-02-01T06:42:13;17.50;;;4.00;;
17714;SDS011;8977;50.902;4.314;2023-02-01T06:44:40;14.67;;;4.40;;
17714;SDS011;8977;50.902;4.314;2023-02-01T06:47:07;15.93;;;4.20;;
17714;SDS011;8977;50.902;4.314;2023-02-01T06:49:33;12.23;;;3.23;;
17714;SDS011;8977;50.902;4.314;2023-02-01T06:52:00;13.90;;;3.67;;
17714;SDS011;8977;50.902;4.314;2023-02-01T06:54:29;14.77;;;4.20;;
17714;SDS011;8977;50.902;4.314;2023-02-01T06:56:58;15.23;;;3.70;;
17714;SDS011;8977;50.902;4.314;2023-02-01T06:59:26;11.80;;;3.37;;
17714;SDS011;8977;50.902;4.314;2023-02-01T07:01:53;15.37;;;3.77;;
17714;SDS011;8977;50.902;4.314;2023-02-01T07:04:20;15.03;;;3.60;;
17714;SDS011;8977;50.902;4.314;2023-02-01T07:06:47;9.97;;;3.43;;
17714;SDS011;8977;50.902;4.314;2023-02-01T07:09:13;11.17;;;3.60;;
17714;SDS011;8977;50.902;4.314;2023-02-01T07:11:41;15.73;;;3.43;;
17714;SDS011;8977;50.902;4.314;2023-02-01T07:14:09;9.07;;;3.17;;
17714;SDS011;8977;50.902;4.314;2023-02-01T07:16:37;14.27;;;3.73;;
17714;SDS011;8977;50.902;4.314;2023-02-01T07:19:04;15.10;;;3.33;;
17714;SDS011;8977;50.902;4.314;2023-02-01T07:21:31;14.10;;;3.50;;
17714;SDS011;8977;50.902;4.314;2023-02-01T07:23:58;14.77;;;3.47;;
17714;SDS011;8977;50.902;4.314;2023-02-01T07:26:25;10.20;;;3.80;;
17714;SDS011;8977;50.902;4.314;2023-02-01T07:28:52;17.47;;;4.23;;
17714;SDS011;8977;50.902;4.314;2023-02-01T07:31:19;16.80;;;3.57;;
17714;SDS011;8977;50.902;4.314;2023-02-01T07:33:48;15.03;;;3.73;;
17714;SDS011;8977;50.902;4.314;2023-02-01T07:36:16;19.27;;;3.90;;
17714;SDS011;8977;50.902;4.314;2023-02-01T07:38:44;15.27;;;4.30;;
17714;SDS011;8977;50.902;4.314;2023-02-01T07:41:11;15.50;;;3.80;;
17714;SDS011;8977;50.902;4.314;2023-02-01T07:43:38;10.97;;;3.03;;
17714;SDS011;8977;50.902;4.314;2023-02-01T07:46:05;12.87;;;4.17;;
17714;SDS011;8977;50.902;4.314;2023-02-01T07:48:33;14.30;;;4.20;;
17714;SDS011;8977;50.902;4.314;2023-02-01T07:51:02;13.00;;;4.23;;
17714;SDS011;8977;50.902;4.314;2023-02-01T07:53:31;12.50;;;3.57;;
17714;SDS011;8977;50.902;4.314;2023-02-01T07:55:59;8.20;;;3.50;;
17714;SDS011;8977;50.902;4.314;2023-02-01T07:58:26;16.50;;;4.30;;
17714;SDS011;8977;50.902;4.314;2023-02-01T08:00:53;21.13;;;3.77;;
17714;SDS011;8977;50.902;4.314;2023-02-01T08:03:38;11.73;;;3.37;;
17714;SDS011;8977;50.902;4.314;2023-02-01T08:06:07;12.93;;;3.90;;
17714;SDS011;8977;50.902;4.314;2023-02-01T08:08:34;14.30;;;4.00;;
17714;SDS011;8977;50.902;4.314;2023-02-01T08:11:01;13.83;;;3.73;;
17714;SDS011;8977;50.902;4.314;2023-02-01T08:13:30;15.57;;;4.83;;
17714;SDS011;8977;50.902;4.314;2023-02-01T08:15:58;13.73;;;3.80;;
17714;SDS011;8977;50.902;4.314;2023-02-01T08:18:25;14.67;;;3.40;;
17714;SDS011;8977;50.902;4.314;2023-02-01T08:20:52;12.50;;;3.43;;
17714;SDS011;8977;50.902;4.314;2023-02-01T08:23:20;12.57;;;3.70;;
17714;SDS011;8977;50.902;4.314;2023-02-01T08:25:48;13.57;;;4.50;;
17714;SDS011;8977;50.902;4.314;2023-02-01T08:28:15;19.93;;;5.37;;
17714;SDS011;8977;50.902;4.314;2023-02-01T08:30:41;16.97;;;5.17;;
17714;SDS011;8977;50.902;4.314;2023-02-01T08:33:08;15.67;;;5.10;;
17714;SDS011;8977;50.902;4.314;2023-02-01T08:35:37;16.20;;;4.47;;
17714;SDS011;8977;50.902;4.314;2023-02-01T08:38:04;17.60;;;4.40;;
17714;SDS011;8977;50.902;4.314;2023-02-01T08:40:32;16.40;;;4.23;;
17714;SDS011;8977;50.902;4.314;2023-02-01T08:42:59;15.40;;;4.23;;
17714;SDS011;8977;50.902;4.314;2023-02-01T08:45:26;11.00;;;4.63;;
17714;SDS011;8977;50.902;4.314;2023-02-01T08:47:54;14.00;;;4.50;;
17714;SDS011;8977;50.902;4.314;2023-02-01T08:50:22;14.10;;;4.30;;
17714;SDS011;8977;50.902;4.314;2023-02-01T08:52:50;13.03;;;3.90;;
17714;SDS011;8977;50.902;4.314;2023-02-01T08:55:17;13.10;;;3.53;;
17714;SDS011;8977;50.902;4.314;2023-02-01T08:57:45;14.70;;;3.67;;
17714;SDS011;8977;50.902;4.314;2023-02-01T09:00:13;14.30;;;3.73;;
17714;SDS011;8977;50.902;4.314;2023-02-01T09:02:42;14.77;;;3.90;;
17714;SDS011;8977;50.902;4.314;2023-02-01T09:05:08;13.60;;;4.00;;
17714;SDS011;8977;50.902;4.314;2023-02-01T09:07:35;12.33;;;4.17;;
17714;SDS011;8977;50.902;4.314;2023-02-01T09:10:03;16.70;;;4.80;;
17714;SDS011;8977;50.902;4.314;2023-02-01T09:12:31;15.43;;;4.78;;
17714;SDS011;8977;50.902;4.314;2023-02-01T09:15:00;11.30;;;3.57;;
17714;SDS011;8977;50.902;4.314;2023-02-01T09:17:27;14.53;;;3.80;;
17714;SDS011;8977;50.902;4.314;2023-02-01T09:19:54;16.77;;;3.60;;
17714;SDS011;8977;50.902;4.314;2023-02-01T09:22:21;16.47;;;4.40;;
17714;SDS011;8977;50.902;4.314;2023-02-01T09:24:48;13.67;;;3.50;;
17714;SDS011;8977;50.902;4.314;2023-02-01T09:27:14;14.20;;;4.57;;
17714;SDS011;8977;50.902;4.314;2023-02-01T09:29:41;16.70;;;5.07;;
17714;SDS011;8977;50.902;4.314;2023-02-01T09:32:09;13.93;;;4.03;;
17714;SDS011;8977;50.902;4.314;2023-02-01T09:34:36;13.90;;;4.20;;
17714;SDS011;8977;50.902;4.314;2023-02-01T09:37:03;14.60;;;4.20;;
17714;SDS011;8977;50.902;4.314;2023-02-01T09:39:30;14.67;;;4.20;;
17714;SDS011;8977;50.902;4.314;2023-02-01T09:41:59;17.07;;;3.83;;
17714;SDS011;8977;50.902;4.314;2023-02-01T09:44:37;19.03;;;4.47;;
17714;SDS011;8977;50.902;4.314;2023-02-01T09:47:14;17.10;;;4.90;;
17714;SDS011;8977;50.902;4.314;2023-02-01T09:49:45;14.93;;;4.07;;
17714;SDS011;8977;50.902;4.314;2023-02-01T09:52:17;13.50;;;3.87;;
17714;SDS011;8977;50.902;4.314;2023-02-01T09:54:51;13.10;;;3.80;;
17714;SDS011;8977;50.902;4.314;2023-02-01T09:57:23;14.30;;;3.80;;
17714;SDS011;8977;50.902;4.314;2023-02-01T09:59:52;16.17;;;4.17;;
17714;SDS011;8977;50.902;4.314;2023-02-01T10:02:26;14.07;;;3.50;;
17714;SDS011;8977;50.902;4.314;2023-02-01T10:04:55;13.03;;;3.90;;
17714;SDS011;8977;50.902;4.314;2023-02-01T10:07:26;16.13;;;3.77;;
17714;SDS011;8977;50.902;4.314;2023-02-01T10:10:04;11.43;;;3.70;;
17714;SDS011;8977;50.902;4.314;2023-02-01T10:12:44;13.47;;;3.70;;
17714;SDS011;8977;50.902;4.314;2023-02-01T10:18:23;13.47;;;3.83;;
17714;SDS011;8977;50.902;4.314;2023-02-01T10:21:06;11.23;;;3.40;;
17714;SDS011;8977;50.902;4.314;2023-02-01T10:23:57;14.13;;;4.10;;
17714;SDS011;8977;50.902;4.314;2023-02-01T10:26:31;20.23;;;3.70;;
17714;SDS011;8977;50.902;4.314;2023-02-01T10:29:00;10.83;;;3.00;;
17714;SDS011;8977;50.902;4.314;2023-02-01T10:31:29;13.23;;;3.53;;
17714;SDS011;8977;50.902;4.314;2023-02-01T10:34:09;12.47;;;3.30;;
17714;SDS011;8977;50.902;4.314;2023-02-01T10:36:47;11.40;;;3.17;;
17714;SDS011;8977;50.902;4.314;2023-02-01T10:39:19;12.13;;;3.13;;
17714;SDS011;8977;50.902;4.314;2023-02-01T10:41:46;13.33;;;2.80;;
17714;SDS011;8977;50.902;4.314;2023-02-01T10:44:14;8.37;;;3.00;;
17714;SDS011;8977;50.902;4.314;2023-02-01T10:46:43;14.33;;;3.17;;
17714;SDS011;8977;50.902;4.314;2023-02-01T10:49:12;12.60;;;3.40;;
17714;SDS011;8977;50.902;4.314;2023-02-01T10:51:45;11.73;;;3.70;;
17714;SDS011;8977;50.902;4.314;2023-02-01T10:54:18;10.63;;;2.80;;
17714;SDS011;8977;50.902;4.314;2023-02-01T10:56:46;9.63;;;2.67;;
17714;SDS011;8977;50.902;4.314;2023-02-01T10:59:15;11.17;;;2.97;;
17714;SDS011;8977;50.902;4.314;2023-02-01T11:01:45;13.00;;;3.10;;
17714;SDS011;8977;50.902;4.314;2023-02-01T11:04:14;10.63;;;2.90;;
17714;SDS011;8977;50.902;4.314;2023-02-01T11:06:44;12.53;;;3.50;;
17714;SDS011;8977;50.902;4.314;2023-02-01T11:09:16;12.30;;;3.97;;
17714;SDS011;8977;50.902;4.314;2023-02-01T11:11:53;18.63;;;3.50;;
17714;SDS011;8977;50.902;4.314;2023-02-01T11:14:26;13.27;;;2.97;;
17714;SDS011;8977;50.902;4.314;2023-02-01T11:16:59;11.03;;;2.53;;
17714;SDS011;8977;50.902;4.314;2023-02-01T11:19:28;10.60;;;2.73;;
17714;SDS011;8977;50.902;4.314;2023-02-01T11:21:59;12.93;;;2.83;;
17714;SDS011;8977;50.902;4.314;2023-02-01T11:24:27;10.03;;;2.57;;
17714;SDS011;8977;50.902;4.314;2023-02-01T11:26:58;7.90;;;3.10;;
17714;SDS011;8977;50.902;4.314;2023-02-01T11:29:28;12.27;;;3.00;;
17714;SDS011;8977;50.902;4.314;2023-02-01T11:32:02;11.87;;;3.13;;
17714;SDS011;8977;50.902;4.314;2023-02-01T11:34:34;11.87;;;3.20;;
17714;SDS011;8977;50.902;4.314;2023-02-01T11:37:04;8.73;;;2.43;;
17714;SDS011;8977;50.902;4.314;2023-02-01T11:39:39;12.90;;;2.63;;
17714;SDS011;8977;50.902;4.314;2023-02-01T11:42:11;10.73;;;3.10;;
17714;SDS011;8977;50.902;4.314;2023-02-01T11:44:41;13.37;;;2.73;;
17714;SDS011;8977;50.902;4.314;2023-02-01T11:47:18;13.33;;;2.73;;
17714;SDS011;8977;50.902;4.314;2023-02-01T11:49:47;9.60;;;2.40;;
17714;SDS011;8977;50.902;4.314;2023-02-01T11:52:16;10.57;;;2.60;;
17714;SDS011;8977;50.902;4.314;2023-02-01T11:54:57;9.17;;;2.20;;
17714;SDS011;8977;50.902;4.314;2023-02-01T11:57:41;9.27;;;2.40;;
17714;SDS011;8977;50.902;4.314;2023-02-01T12:00:24;13.50;;;2.43;;
17714;SDS011;8977;50.902;4.314;2023-02-01T12:03:26;11.57;;;3.70;;
17714;SDS011;8977;50.902;4.314;2023-02-01T12:06:14;5.87;;;2.23;;
17714;SDS011;8977;50.902;4.314;2023-02-01T12:11:38;8.47;;;2.30;;
17714;SDS011;8977;50.902;4.314;2023-02-01T12:14:24;6.07;;;1.87;;
17714;SDS011;8977;50.902;4.314;2023-02-01T12:17:18;9.30;;;2.03;;
17714;SDS011;8977;50.902;4.314;2023-02-01T12:20:02;8.93;;;2.67;;
17714;SDS011;8977;50.902;4.314;2023-02-01T12:22:47;15.80;;;2.57;;
17714;SDS011;8977;50.902;4.314;2023-02-01T12:25:32;8.93;;;2.97;;
17714;SDS011;8977;50.902;4.314;2023-02-01T12:28:12;7.67;;;1.87;;
17714;SDS011;8977;50.902;4.314;2023-02-01T12:31:07;8.73;;;2.27;;
17714;SDS011;8977;50.902;4.314;2023-02-01T12:34:04;4.47;;;1.67;;
17714;SDS011;8977;50.902;4.314;2023-02-01T12:36:43;6.40;;;1.93;;
17714;SDS011;8977;50.902;4.314;2023-02-01T12:39:20;7.70;;;1.97;;
17714;SDS011;8977;50.902;4.314;2023-02-01T12:41:55;10.87;;;2.53;;
17714;SDS011;8977;50.902;4.314;2023-02-01T12:44:29;8.87;;;2.23;;
17714;SDS011;8977;50.902;4.314;2023-02-01T12:47:10;9.30;;;1.87;;
17714;SDS011;8977;50.902;4.314;2023-02-01T12:49:47;6.83;;;1.77;;
17714;SDS011;8977;50.902;4.314;2023-02-01T12:52:20;8.53;;;2.10;;
17714;SDS011;8977;50.902;4.314;2023-02-01T12:54:55;9.93;;;2.00;;
17714;SDS011;8977;50.902;4.314;2023-02-01T12:57:27;6.30;;;1.90;;
17714;SDS011;8977;50.902;4.314;2023-02-01T13:00:00;5.53;;;1.87;;
17714;SDS011;8977;50.902;4.314;2023-02-01T13:02:35;5.93;;;2.10;;
17714;SDS011;8977;50.902;4.314;2023-02-01T13:05:12;10.60;;;2.00;;
17714;SDS011;8977;50.902;4.314;2023-02-01T13:07:43;7.13;;;2.07;;
17714;SDS011;8977;50.902;4.314;2023-02-01T13:10:16;6.40;;;1.57;;
17714;SDS011;8977;50.902;4.314;2023-02-01T13:12:51;7.77;;;2.00;;
17714;SDS011;8977;50.902;4.314;2023-02-01T13:15:21;8.90;;;2.10;;
17714;SDS011;8977;50.902;4.314;2023-02-01T13:17:52;7.57;;;2.00;;
17714;SDS011;8977;50.902;4.314;2023-02-01T13:20:25;7.90;;;1.77;;
17714;SDS011;8977;50.902;4.314;2023-02-01T13:22:58;7.23;;;1.60;;
17714;SDS011;8977;50.902;4.314;2023-02-01T13:25:31;9.93;;;2.10;;
17714;SDS011;8977;50.902;4.314;2023-02-01T13:28:03;7.13;;;2.17;;
17714;SDS011;8977;50.902;4.314;2023-02-01T13:30:38;9.93;;;2.53;;
17714;SDS011;8977;50.902;4.314;2023-02-01T13:33:25;9.07;;;2.37;;
17714;SDS011;8977;50.902;4.314;2023-02-01T13:36:26;6.27;;;1.87;;
17714;SDS011;8977;50.902;4.314;2023-02-01T13:41:54;5.80;;;1.83;;
17714;SDS011;8977;50.902;4.314;2023-02-01T13:44:25;14.63;;;2.30;;
17714;SDS011;8977;50.902;4.314;2023-02-01T13:46:57;7.00;;;2.23;;
17714;SDS011;8977;50.902;4.314;2023-02-01T13:49:27;8.68;;;1.98;;
17714;SDS011;8977;50.902;4.314;2023-02-01T13:51:57;10.93;;;2.20;;
17714;SDS011;8977;50.902;4.314;2023-02-01T13:54:27;8.73;;;2.07;;
17714;SDS011;8977;50.902;4.314;2023-02-01T13:56:59;11.83;;;2.40;;
17714;SDS011;8977;50.902;4.314;2023-02-01T13:59:48;7.97;;;2.20;;
17714;SDS011;8977;50.902;4.314;2023-02-01T14:08:24;10.20;;;2.30;;
17714;SDS011;8977;50.902;4.314;2023-02-01T14:14:36;5.50;;;1.90;;
17714;SDS011;8977;50.902;4.314;2023-02-01T14:23:22;7.03;;;2.33;;
17714;SDS011;8977;50.902;4.314;2023-02-01T14:26:01;6.63;;;2.50;;
17714;SDS011;8977;50.902;4.314;2023-02-01T14:28:32;11.00;;;2.80;;
17714;SDS011;8977;50.902;4.314;2023-02-01T14:31:06;8.83;;;2.73;;
17714;SDS011;8977;50.902;4.314;2023-02-01T14:33:49;7.60;;;1.90;;
17714;SDS011;8977;50.902;4.314;2023-02-01T14:36:21;10.73;;;2.43;;
17714;SDS011;8977;50.902;4.314;2023-02-01T14:38:49;10.73;;;2.50;;
17714;SDS011;8977;50.902;4.314;2023-02-01T14:41:23;11.23;;;2.70;;
17714;SDS011;8977;50.902;4.314;2023-02-01T14:44:21;7.70;;;2.40;;
17714;SDS011;8977;50.902;4.314;2023-02-01T14:50:07;8.93;;;2.50;;
17714;SDS011;8977;50.902;4.314;2023-02-01T14:52:44;9.43;;;2.33;;
17714;SDS011;8977;50.902;4.314;2023-02-01T14:55:14;8.83;;;2.00;;
17714;SDS011;8977;50.902;4.314;2023-02-01T14:57:44;9.83;;;2.40;;
17714;SDS011;8977;50.902;4.314;2023-02-01T15:00:17;9.80;;;2.60;;
17714;SDS011;8977;50.902;4.314;2023-02-01T15:02:48;7.03;;;2.20;;
17714;SDS011;8977;50.902;4.314;2023-02-01T15:05:24;8.33;;;2.83;;
17714;SDS011;8977;50.902;4.314;2023-02-01T15:07:54;11.13;;;2.70;;
17714;SDS011;8977;50.902;4.314;2023-02-01T15:10:23;7.50;;;2.67;;
17714;SDS011;8977;50.902;4.314;2023-02-01T15:12:50;13.77;;;2.40;;
17714;SDS011;8977;50.902;4.314;2023-02-01T15:15:18;9.60;;;2.77;;
17714;SDS011;8977;50.902;4.314;2023-02-01T15:17:52;7.63;;;2.67;;
17714;SDS011;8977;50.902;4.314;2023-02-01T15:20:22;11.13;;;2.40;;
17714;SDS011;8977;50.902;4.314;2023-02-01T15:22:53;12.43;;;2.70;;
17714;SDS011;8977;50.902;4.314;2023-02-01T15:25:23;7.10;;;2.63;;
17714;SDS011;8977;50.902;4.314;2023-02-01T15:27:51;12.67;;;2.63;;
17714;SDS011;8977;50.902;4.314;2023-02-01T15:30:19;12.70;;;2.77;;
17714;SDS011;8977;50.902;4.314;2023-02-01T15:32:47;6.20;;;2.23;;
17714;SDS011;8977;50.902;4.314;2023-02-01T15:35:37;10.40;;;3.03;;
17714;SDS011;8977;50.902;4.314;2023-02-01T15:41:07;12.87;;;2.67;;
17714;SDS011;8977;50.902;4.314;2023-02-01T15:43:39;8.67;;;2.70;;
17714;SDS011;8977;50.902;4.314;2023-02-01T15:46:10;10.67;;;3.03;;
17714;SDS011;8977;50.902;4.314;2023-02-01T15:48:45;10.10;;;2.33;;